Capewater — PBPQ — position and weather

sailwx.info

Track history (hours):
 
Tides and Currents Weather Stations Pressure Air Temp Water Temp Dewpoint Dewpoint Depression Visibility Wind Speed Wind Dir Waves Ship Positions

Capewater

Last reported at 2017-Feb-24 21:19 UTC. Time now 2017-Feb-24 21:39 UTC.
Position N 51°42' E 004°34'.

Length 100 m; draft 6.5 m.

Type: Tanker. MMSI: 246346000.

Date/timePositionNaut miles runAvg speedWind from/ knotsBaromVisibWave heightAir tempDewpointWater temp
2017-Feb-24 21:19N 51°42' E 004°34'0 0.1
2017-Feb-24 20:33N 51°42' E 004°34'1 0.7
2017-Feb-24 19:33N 51°42' E 004°35'7 6.7
2017-Feb-24 18:33N 51°48' E 004°36'8 7.5
2017-Feb-24 17:33N 51°51' E 004°25'7 7.2
2017-Feb-24 16:33N 51°55' E 004°15'1111.1
2017-Feb-24 15:33N 51°60' E 003°59'1312.8
2017-Feb-24 14:33N 51°57' E 003°39'5313.2
2017-Feb-24 10:30N 51°33' E 002°22'1111.8
2017-Feb-24 09:33N 51°24' E 002°12'1211.6
2017-Feb-24 08:33N 51°13' E 002°04'1211.9
2017-Feb-24 07:33N 51°07' E 001°48'1111.4
2017-Feb-24 06:33N 50°59' E 001°35'1110.5
2017-Feb-24 05:30N 50°50' E 001°26'6011.5
2017-Feb-24 00:16N 50°06' E 000°20'811.7
2017-Feb-23 23:33N 50°00' E 000°11'1212.0
2017-Feb-23 22:33N 49°52' W 000°03'10 9.9
2017-Feb-23 21:33N 49°43' W 000°07'10 9.6
2017-Feb-23 20:33N 49°33' W 000°03'7 6.9
2017-Feb-23 19:33N 49°29' E 000°05'3 3.3
2017-Feb-23 18:33N 49°29' E 000°10'1 0.6
2017-Feb-23 17:33N 49°29' E 000°11'1 0.6
2017-Feb-23 16:32N 49°29' E 000°12'0 0.0
2017-Feb-23 15:32N 49°29' E 000°12'0 0.0
2017-Feb-23 14:32N 49°29' E 000°12'0 0.0
2017-Feb-23 13:32N 49°29' E 000°12'0 0.0
2017-Feb-23 12:32N 49°29' E 000°12'0 0.0
2017-Feb-23 11:32N 49°29' E 000°12'0 0.0
2017-Feb-23 10:32N 49°29' E 000°12'0 0.0
2017-Feb-23 09:32N 49°29' E 000°12'0 0.0
2017-Feb-23 08:32N 49°29' E 000°12'0 0.0
2017-Feb-23 07:32N 49°29' E 000°12'0 0.0
2017-Feb-23 06:32N 49°29' E 000°12'0 0.0
2017-Feb-23 05:32N 49°29' E 000°12'0 0.0
2017-Feb-23 04:32N 49°29' E 000°12'0 0.0
2017-Feb-23 03:32N 49°29' E 000°12'0 0.0
2017-Feb-23 02:32N 49°29' E 000°12'0 0.0
2017-Feb-23 01:32N 49°29' E 000°12'0 0.0
2017-Feb-23 00:32N 49°29' E 000°12'0 0.0
2017-Feb-22 23:32N 49°29' E 000°12'0 0.0
2017-Feb-22 22:32N 49°29' E 000°12'0 0.0
2017-Feb-22 21:32N 49°29' E 000°12'0 0.0
2017-Feb-22 20:32N 49°29' E 000°12'0 0.0
2017-Feb-22 19:32N 49°29' E 000°12'0 0.0
2017-Feb-22 18:32N 49°29' E 000°12'0 0.0
2017-Feb-22 17:32N 49°29' E 000°12'0 0.0
2017-Feb-22 16:32N 49°29' E 000°12'0 0.0
2017-Feb-22 15:32N 49°29' E 000°12'1 1.1
2017-Feb-22 14:34N 49°29' E 000°11'1 1.0
2017-Feb-22 13:33N 49°28' E 000°09'9 8.7
2017-Feb-22 12:33N 49°30' W 000°04'0 0.3
2017-Feb-22 11:31N 49°30' W 000°04'0 0.0
2017-Feb-22 10:31N 49°30' W 000°04'0 0.0
2017-Feb-22 09:31N 49°30' W 000°04'0 0.0
2017-Feb-22 08:31N 49°30' W 000°04'0 0.0
2017-Feb-22 07:31N 49°30' W 000°04'0 0.0
2017-Feb-22 06:31N 49°30' W 000°04'0 0.0
2017-Feb-22 05:31N 49°30' W 000°04'0 0.0
2017-Feb-22 04:31N 49°30' W 000°04'0 0.0
2017-Feb-22 03:31N 49°30' W 000°04'0 0.0
2017-Feb-22 02:31N 49°30' W 000°04'0 0.0
2017-Feb-22 01:31N 49°30' W 000°04'0 0.0
2017-Feb-22 00:31N 49°30' W 000°04'0 0.0
2017-Feb-21 23:31N 49°30' W 000°04'0 0.0
2017-Feb-21 22:31N 49°30' W 000°04'0 0.0
2017-Feb-21 21:31N 49°30' W 000°04'0 0.0
2017-Feb-21 20:31N 49°30' W 000°04'0 0.0
2017-Feb-21 19:31N 49°30' W 000°04'0 0.0
2017-Feb-21 18:31N 49°30' W 000°04'0 0.0
2017-Feb-21 17:31N 49°30' W 000°04'0 0.0
2017-Feb-21 16:31N 49°30' W 000°04'0 0.0
2017-Feb-21 15:31N 49°30' W 000°04'0 0.0
2017-Feb-21 14:31N 49°30' W 000°04'0 0.0
2017-Feb-21 13:32N 49°30' W 000°04'0 0.0
2017-Feb-21 12:32N 49°30' W 000°04'0 0.0
2017-Feb-21 11:32N 49°30' W 000°04'0 0.0
2017-Feb-21 10:32N 49°30' W 000°04'0 0.0
2017-Feb-21 09:32N 49°30' W 000°04'0 0.0
2017-Feb-21 08:32N 49°30' W 000°04'0 0.0
2017-Feb-21 07:32N 49°30' W 000°04'0 0.0
2017-Feb-21 06:32N 49°30' W 000°04'0 0.0
2017-Feb-21 05:32N 49°30' W 000°04'0 0.0
2017-Feb-21 04:32N 49°30' W 000°04'0 0.0
2017-Feb-21 03:32N 49°30' W 000°04'0 0.0
2017-Feb-21 02:32N 49°30' W 000°04'0 0.0
2017-Feb-21 01:32N 49°30' W 000°04'0 0.0
2017-Feb-21 00:32N 49°30' W 000°04'0 0.0
2017-Feb-20 23:32N 49°30' W 000°04'0 0.0
2017-Feb-20 22:32N 49°30' W 000°04'0 0.0
2017-Feb-20 21:32N 49°30' W 000°04'0 0.0
2017-Feb-20 20:32N 49°30' W 000°04'0 0.0
2017-Feb-20 19:32N 49°30' W 000°04'0 0.0
2017-Feb-20 18:32N 49°30' W 000°04'0 0.0
2017-Feb-20 17:32N 49°30' W 000°04'0 0.0
2017-Feb-20 16:32N 49°30' W 000°04'0 0.0
2017-Feb-20 15:32N 49°30' W 000°04'0 0.0
2017-Feb-20 14:32N 49°30' W 000°04'0 0.0
2017-Feb-20 13:32N 49°30' W 000°04'0 0.0
2017-Feb-20 12:32N 49°30' W 000°04'0 0.0
2017-Feb-20 11:32N 49°30' W 000°04'0 0.0
2017-Feb-20 10:32N 49°30' W 000°04'0 0.0
2017-Feb-20 09:32N 49°30' W 000°04'0 0.0
2017-Feb-20 08:32N 49°30' W 000°04'0 0.0
2017-Feb-20 07:32N 49°30' W 000°04'0 0.0
2017-Feb-20 06:32N 49°30' W 000°04'0 0.0
2017-Feb-20 05:32N 49°30' W 000°04'0 0.0
2017-Feb-20 04:32N 49°30' W 000°04'0 0.0
2017-Feb-20 03:32N 49°30' W 000°04'0 0.0
2017-Feb-20 02:32N 49°30' W 000°04'0 0.0
2017-Feb-20 01:32N 49°30' W 000°04'0 0.0
2017-Feb-20 00:32N 49°30' W 000°04'0 0.0
2017-Feb-19 23:32N 49°30' W 000°04'0 0.0
2017-Feb-19 22:32N 49°30' W 000°04'0 0.0
2017-Feb-19 21:32N 49°30' W 000°04'0 0.0
2017-Feb-19 20:32N 49°30' W 000°04'0 0.0
2017-Feb-19 19:31N 49°30' W 000°04'0 0.0
2017-Feb-19 18:31N 49°30' W 000°04'0 0.0
2017-Feb-19 17:32N 49°30' W 000°04'0 0.0
2017-Feb-19 16:31N 49°30' W 000°04'0 0.0
2017-Feb-19 15:31N 49°30' W 000°04'0 0.0
2017-Feb-19 14:28N 49°30' W 000°04'0 0.0
2017-Feb-19 13:32N 49°30' W 000°04'0 0.0
2017-Feb-19 12:31N 49°30' W 000°04'5 5.6
2017-Feb-19 11:33N 49°27' E 000°02'1313.4
2017-Feb-19 10:34N 49°27' E 000°23'1111.0
2017-Feb-19 09:33N 49°28' E 000°40'6 0.3
2017-Feb-18 13:12N 49°27' E 000°49'6 7.2
2017-Feb-18 12:21N 49°29' E 000°40'7 8.9
2017-Feb-18 11:33N 49°29' E 000°29'1313.0
2017-Feb-18 10:33N 49°26' E 000°10'1010.0
2017-Feb-18 09:33N 49°29' W 000°05'5 4.5
2017-Feb-18 08:34N 49°31' W 000°11'5 4.9
2017-Feb-18 07:33N 49°36' W 000°11'5 4.8
2017-Feb-18 06:33N 49°41' W 000°12'5 4.8
2017-Feb-18 05:33N 49°46' W 000°11'5 4.8
2017-Feb-18 04:33N 49°50' W 000°10'7 7.1
2017-Feb-18 03:33N 49°57' W 000°09'10 9.8
2017-Feb-18 02:33N 50°07' W 000°08'10 9.9
2017-Feb-18 01:33N 50°17' W 000°07'10 9.8
2017-Feb-18 00:33N 50°26' W 000°02'1010.4
2017-Feb-17 23:33N 50°31' E 000°13'3310.2
2017-Feb-17 20:17N 50°46' E 000°60'810.0
2017-Feb-17 19:30N 50°51' E 001°10'9 9.3
2017-Feb-17 18:33N 50°57' E 001°20'9 9.3
2017-Feb-17 17:33N 51°03' E 001°30'1010.2
2017-Feb-17 16:33N 51°11' E 001°42'1010.1
2017-Feb-17 15:33N 51°18' E 001°53'10 9.6
2017-Feb-17 14:33N 51°24' E 002°05'1212.4
2017-Feb-17 13:33N 51°21' E 002°24'1111.0
2017-Feb-17 12:33N 51°22' E 002°41'1211.8
2017-Feb-17 11:33N 51°24' E 003°00'1514.7
2017-Feb-17 10:33N 51°25' E 003°24'1212.2
2017-Feb-17 09:33N 51°23' E 003°43'5 5.1
2017-Feb-17 08:33N 51°20' E 003°49'2 1.8
2017-Feb-17 07:33N 51°18' E 003°50'2 1.6
2017-Feb-17 06:28N 51°16' E 003°51'0 0.0
2017-Feb-17 05:28N 51°16' E 003°51'0 0.0
2017-Feb-17 04:28N 51°16' E 003°51'0 0.0
2017-Feb-17 03:22N 51°16' E 003°51'0 0.0
2017-Feb-17 01:22N 51°16' E 003°51'0 0.0
2017-Feb-17 00:28N 51°16' E 003°51'0 0.0
2017-Feb-16 23:04N 51°16' E 003°51'0 0.0
2017-Feb-16 22:28N 51°16' E 003°51'0 0.0
2017-Feb-16 21:28N 51°16' E 003°51'0 0.0
2017-Feb-16 20:22N 51°16' E 003°51'0 0.0
2017-Feb-16 19:22N 51°16' E 003°51'0 0.0
2017-Feb-16 18:28N 51°16' E 003°51'0 0.0
2017-Feb-16 17:28N 51°16' E 003°51'0 0.0
2017-Feb-16 16:10N 51°16' E 003°51'0 0.0
2017-Feb-16 15:28N 51°16' E 003°51'0 0.0
2017-Feb-16 14:28N 51°16' E 003°51'0 0.0
2017-Feb-16 13:22N 51°16' E 003°51'0 0.0
2017-Feb-16 12:28N 51°16' E 003°51'0 0.0
2017-Feb-16 11:28N 51°16' E 003°51'1 1.0
2017-Feb-16 10:33N 51°17' E 003°50'3 3.0
2017-Feb-16 09:33N 51°20' E 003°49'5 5.0
2017-Feb-16 08:33N 51°23' E 003°42'8 7.7
2017-Feb-16 07:33N 51°27' E 003°32'1111.0
2017-Feb-16 06:33N 51°36' E 003°22'1010.4
2017-Feb-16 05:33N 51°45' E 003°13'5 4.7
2017-Feb-16 04:32N 51°50' E 003°16'9 9.2
2017-Feb-16 03:33N 51°59' E 003°20'1110.3
2017-Feb-16 02:32N 52°09' E 003°22'1210.8
2017-Feb-16 01:25N 52°21' E 003°25'4711.2
2017-Feb-15 21:14N 53°01' E 004°06'11911.0
2017-Feb-15 10:29N 53°55' E 007°03'1010.3
2017-Feb-15 09:33N 53°58' E 007°18'1110.7
2017-Feb-15 08:33N 54°01' E 007°36'1111.2
2017-Feb-15 07:33N 54°01' E 007°55'1312.6
2017-Feb-15 06:33N 54°00' E 008°16'1616.0
2017-Feb-15 05:34N 53°54' E 008°41'1313.1
2017-Feb-15 04:34N 53°52' E 009°03'10 9.6
2017-Feb-15 03:33N 53°51' E 009°20'1211.6
2017-Feb-15 02:34N 53°41' E 009°30'1010.2
2017-Feb-15 01:33N 53°34' E 009°42'9 8.6
2017-Feb-15 00:33N 53°33' E 009°57'1 1.1
2017-Feb-14 23:28N 53°32' E 009°59'0 0.0
2017-Feb-14 22:31N 53°32' E 009°59'0 0.0
2017-Feb-14 21:31N 53°32' E 009°59'  
Track history (hours):
 
Tides and Currents Weather Stations Pressure Air Temp Water Temp Dewpoint Dewpoint Depression Visibility Wind Speed Wind Dir Waves Ship Positions

Capewater

Last reported at 2017-Feb-24 21:19 UTC. Time now 2017-Feb-24 21:39 UTC.
Position N 51°42' E 004°34'.

Length 100 m; draft 6.5 m.

Type: Tanker. MMSI: 246346000.

Date/timePositionNaut miles runAvg speedWind from/ knotsBaromVisibWave heightAir tempDewpointWater temp
2017-Feb-24 21:19N 51°42' E 004°34'0 0.1
2017-Feb-24 20:33N 51°42' E 004°34'1 0.7
2017-Feb-24 19:33N 51°42' E 004°35'7 6.7
2017-Feb-24 18:33N 51°48' E 004°36'8 7.5
2017-Feb-24 17:33N 51°51' E 004°25'7 7.2
2017-Feb-24 16:33N 51°55' E 004°15'1111.1
2017-Feb-24 15:33N 51°60' E 003°59'1312.8
2017-Feb-24 14:33N 51°57' E 003°39'5313.2
2017-Feb-24 10:30N 51°33' E 002°22'1111.8
2017-Feb-24 09:33N 51°24' E 002°12'1211.6
2017-Feb-24 08:33N 51°13' E 002°04'1211.9
2017-Feb-24 07:33N 51°07' E 001°48'1111.4
2017-Feb-24 06:33N 50°59' E 001°35'1110.5
2017-Feb-24 05:30N 50°50' E 001°26'6011.5
2017-Feb-24 00:16N 50°06' E 000°20'811.7
2017-Feb-23 23:33N 50°00' E 000°11'1212.0
2017-Feb-23 22:33N 49°52' W 000°03'10 9.9
2017-Feb-23 21:33N 49°43' W 000°07'10 9.6
2017-Feb-23 20:33N 49°33' W 000°03'7 6.9
2017-Feb-23 19:33N 49°29' E 000°05'3 3.3
2017-Feb-23 18:33N 49°29' E 000°10'1 0.6
2017-Feb-23 17:33N 49°29' E 000°11'1 0.6
2017-Feb-23 16:32N 49°29' E 000°12'0 0.0
2017-Feb-23 15:32N 49°29' E 000°12'0 0.0
2017-Feb-23 14:32N 49°29' E 000°12'0 0.0
2017-Feb-23 13:32N 49°29' E 000°12'0 0.0
2017-Feb-23 12:32N 49°29' E 000°12'0 0.0
2017-Feb-23 11:32N 49°29' E 000°12'0 0.0
2017-Feb-23 10:32N 49°29' E 000°12'0 0.0
2017-Feb-23 09:32N 49°29' E 000°12'0 0.0
2017-Feb-23 08:32N 49°29' E 000°12'0 0.0
2017-Feb-23 07:32N 49°29' E 000°12'0 0.0
2017-Feb-23 06:32N 49°29' E 000°12'0 0.0
2017-Feb-23 05:32N 49°29' E 000°12'0 0.0
2017-Feb-23 04:32N 49°29' E 000°12'0 0.0
2017-Feb-23 03:32N 49°29' E 000°12'0 0.0
2017-Feb-23 02:32N 49°29' E 000°12'0 0.0
2017-Feb-23 01:32N 49°29' E 000°12'0 0.0
2017-Feb-23 00:32N 49°29' E 000°12'0 0.0
2017-Feb-22 23:32N 49°29' E 000°12'0 0.0
2017-Feb-22 22:32N 49°29' E 000°12'0 0.0
2017-Feb-22 21:32N 49°29' E 000°12'0 0.0
2017-Feb-22 20:32N 49°29' E 000°12'0 0.0
2017-Feb-22 19:32N 49°29' E 000°12'0 0.0
2017-Feb-22 18:32N 49°29' E 000°12'0 0.0
2017-Feb-22 17:32N 49°29' E 000°12'0 0.0
2017-Feb-22 16:32N 49°29' E 000°12'0 0.0
2017-Feb-22 15:32N 49°29' E 000°12'1 1.1
2017-Feb-22 14:34N 49°29' E 000°11'1 1.0
2017-Feb-22 13:33N 49°28' E 000°09'9 8.7
2017-Feb-22 12:33N 49°30' W 000°04'0 0.3
2017-Feb-22 11:31N 49°30' W 000°04'0 0.0
2017-Feb-22 10:31N 49°30' W 000°04'0 0.0
2017-Feb-22 09:31N 49°30' W 000°04'0 0.0
2017-Feb-22 08:31N 49°30' W 000°04'0 0.0
2017-Feb-22 07:31N 49°30' W 000°04'0 0.0
2017-Feb-22 06:31N 49°30' W 000°04'0 0.0
2017-Feb-22 05:31N 49°30' W 000°04'0 0.0
2017-Feb-22 04:31N 49°30' W 000°04'0 0.0
2017-Feb-22 03:31N 49°30' W 000°04'0 0.0
2017-Feb-22 02:31N 49°30' W 000°04'0 0.0
2017-Feb-22 01:31N 49°30' W 000°04'0 0.0
2017-Feb-22 00:31N 49°30' W 000°04'0 0.0
2017-Feb-21 23:31N 49°30' W 000°04'0 0.0
2017-Feb-21 22:31N 49°30' W 000°04'0 0.0
2017-Feb-21 21:31N 49°30' W 000°04'0 0.0
2017-Feb-21 20:31N 49°30' W 000°04'0 0.0
2017-Feb-21 19:31N 49°30' W 000°04'0 0.0
2017-Feb-21 18:31N 49°30' W 000°04'0 0.0
2017-Feb-21 17:31N 49°30' W 000°04'0 0.0
2017-Feb-21 16:31N 49°30' W 000°04'0 0.0
2017-Feb-21 15:31N 49°30' W 000°04'0 0.0
2017-Feb-21 14:31N 49°30' W 000°04'0 0.0
2017-Feb-21 13:32N 49°30' W 000°04'0 0.0
2017-Feb-21 12:32N 49°30' W 000°04'0 0.0
2017-Feb-21 11:32N 49°30' W 000°04'0 0.0
2017-Feb-21 10:32N 49°30' W 000°04'0 0.0
2017-Feb-21 09:32N 49°30' W 000°04'0 0.0
2017-Feb-21 08:32N 49°30' W 000°04'0 0.0
2017-Feb-21 07:32N 49°30' W 000°04'0 0.0
2017-Feb-21 06:32N 49°30' W 000°04'0 0.0
2017-Feb-21 05:32N 49°30' W 000°04'0 0.0
2017-Feb-21 04:32N 49°30' W 000°04'0 0.0
2017-Feb-21 03:32N 49°30' W 000°04'0 0.0
2017-Feb-21 02:32N 49°30' W 000°04'0 0.0
2017-Feb-21 01:32N 49°30' W 000°04'0 0.0
2017-Feb-21 00:32N 49°30' W 000°04'0 0.0
2017-Feb-20 23:32N 49°30' W 000°04'0 0.0
2017-Feb-20 22:32N 49°30' W 000°04'0 0.0
2017-Feb-20 21:32N 49°30' W 000°04'0 0.0
2017-Feb-20 20:32N 49°30' W 000°04'0 0.0
2017-Feb-20 19:32N 49°30' W 000°04'0 0.0
2017-Feb-20 18:32N 49°30' W 000°04'0 0.0
2017-Feb-20 17:32N 49°30' W 000°04'0 0.0
2017-Feb-20 16:32N 49°30' W 000°04'0 0.0
2017-Feb-20 15:32N 49°30' W 000°04'0 0.0
2017-Feb-20 14:32N 49°30' W 000°04'0 0.0
2017-Feb-20 13:32N 49°30' W 000°04'0 0.0
2017-Feb-20 12:32N 49°30' W 000°04'0 0.0
2017-Feb-20 11:32N 49°30' W 000°04'0 0.0
2017-Feb-20 10:32N 49°30' W 000°04'0 0.0
2017-Feb-20 09:32N 49°30' W 000°04'0 0.0
2017-Feb-20 08:32N 49°30' W 000°04'0 0.0
2017-Feb-20 07:32N 49°30' W 000°04'0 0.0
2017-Feb-20 06:32N 49°30' W 000°04'0 0.0
2017-Feb-20 05:32N 49°30' W 000°04'0 0.0
2017-Feb-20 04:32N 49°30' W 000°04'0 0.0
2017-Feb-20 03:32N 49°30' W 000°04'0 0.0
2017-Feb-20 02:32N 49°30' W 000°04'0 0.0
2017-Feb-20 01:32N 49°30' W 000°04'0 0.0
2017-Feb-20 00:32N 49°30' W 000°04'0 0.0
2017-Feb-19 23:32N 49°30' W 000°04'0 0.0
2017-Feb-19 22:32N 49°30' W 000°04'0 0.0
2017-Feb-19 21:32N 49°30' W 000°04'0 0.0
2017-Feb-19 20:32N 49°30' W 000°04'0 0.0
2017-Feb-19 19:31N 49°30' W 000°04'0 0.0
2017-Feb-19 18:31N 49°30' W 000°04'0 0.0
2017-Feb-19 17:32N 49°30' W 000°04'0 0.0
2017-Feb-19 16:31N 49°30' W 000°04'0 0.0
2017-Feb-19 15:31N 49°30' W 000°04'0 0.0
2017-Feb-19 14:28N 49°30' W 000°04'0 0.0
2017-Feb-19 13:32N 49°30' W 000°04'0 0.0
2017-Feb-19 12:31N 49°30' W 000°04'5 5.6
2017-Feb-19 11:33N 49°27' E 000°02'1313.4
2017-Feb-19 10:34N 49°27' E 000°23'1111.0
2017-Feb-19 09:33N 49°28' E 000°40'6 0.3
2017-Feb-18 13:12N 49°27' E 000°49'6 7.2
2017-Feb-18 12:21N 49°29' E 000°40'7 8.9
2017-Feb-18 11:33N 49°29' E 000°29'1313.0
2017-Feb-18 10:33N 49°26' E 000°10'1010.0
2017-Feb-18 09:33N 49°29' W 000°05'5 4.5
2017-Feb-18 08:34N 49°31' W 000°11'5 4.9
2017-Feb-18 07:33N 49°36' W 000°11'5 4.8
2017-Feb-18 06:33N 49°41' W 000°12'5 4.8
2017-Feb-18 05:33N 49°46' W 000°11'5 4.8
2017-Feb-18 04:33N 49°50' W 000°10'7 7.1
2017-Feb-18 03:33N 49°57' W 000°09'10 9.8
2017-Feb-18 02:33N 50°07' W 000°08'10 9.9
2017-Feb-18 01:33N 50°17' W 000°07'10 9.8
2017-Feb-18 00:33N 50°26' W 000°02'1010.4
2017-Feb-17 23:33N 50°31' E 000°13'3310.2
2017-Feb-17 20:17N 50°46' E 000°60'810.0
2017-Feb-17 19:30N 50°51' E 001°10'9 9.3
2017-Feb-17 18:33N 50°57' E 001°20'9 9.3
2017-Feb-17 17:33N 51°03' E 001°30'1010.2
2017-Feb-17 16:33N 51°11' E 001°42'1010.1
2017-Feb-17 15:33N 51°18' E 001°53'10 9.6
2017-Feb-17 14:33N 51°24' E 002°05'1212.4
2017-Feb-17 13:33N 51°21' E 002°24'1111.0
2017-Feb-17 12:33N 51°22' E 002°41'1211.8
2017-Feb-17 11:33N 51°24' E 003°00'1514.7
2017-Feb-17 10:33N 51°25' E 003°24'1212.2
2017-Feb-17 09:33N 51°23' E 003°43'5 5.1
2017-Feb-17 08:33N 51°20' E 003°49'2 1.8
2017-Feb-17 07:33N 51°18' E 003°50'2 1.6
2017-Feb-17 06:28N 51°16' E 003°51'0 0.0
2017-Feb-17 05:28N 51°16' E 003°51'0 0.0
2017-Feb-17 04:28N 51°16' E 003°51'0 0.0
2017-Feb-17 03:22N 51°16' E 003°51'0 0.0
2017-Feb-17 01:22N 51°16' E 003°51'0 0.0
2017-Feb-17 00:28N 51°16' E 003°51'0 0.0
2017-Feb-16 23:04N 51°16' E 003°51'0 0.0
2017-Feb-16 22:28N 51°16' E 003°51'0 0.0
2017-Feb-16 21:28N 51°16' E 003°51'0 0.0
2017-Feb-16 20:22N 51°16' E 003°51'0 0.0
2017-Feb-16 19:22N 51°16' E 003°51'0 0.0
2017-Feb-16 18:28N 51°16' E 003°51'0 0.0
2017-Feb-16 17:28N 51°16' E 003°51'0 0.0
2017-Feb-16 16:10N 51°16' E 003°51'0 0.0
2017-Feb-16 15:28N 51°16' E 003°51'0 0.0
2017-Feb-16 14:28N 51°16' E 003°51'0 0.0
2017-Feb-16 13:22N 51°16' E 003°51'0 0.0
2017-Feb-16 12:28N 51°16' E 003°51'0 0.0
2017-Feb-16 11:28N 51°16' E 003°51'1 1.0
2017-Feb-16 10:33N 51°17' E 003°50'3 3.0
2017-Feb-16 09:33N 51°20' E 003°49'5 5.0
2017-Feb-16 08:33N 51°23' E 003°42'8 7.7
2017-Feb-16 07:33N 51°27' E 003°32'1111.0
2017-Feb-16 06:33N 51°36' E 003°22'1010.4
2017-Feb-16 05:33N 51°45' E 003°13'5 4.7
2017-Feb-16 04:32N 51°50' E 003°16'9 9.2
2017-Feb-16 03:33N 51°59' E 003°20'1110.3
2017-Feb-16 02:32N 52°09' E 003°22'1210.8
2017-Feb-16 01:25N 52°21' E 003°25'4711.2
2017-Feb-15 21:14N 53°01' E 004°06'11911.0
2017-Feb-15 10:29N 53°55' E 007°03'1010.3
2017-Feb-15 09:33N 53°58' E 007°18'1110.7
2017-Feb-15 08:33N 54°01' E 007°36'1111.2
2017-Feb-15 07:33N 54°01' E 007°55'1312.6
2017-Feb-15 06:33N 54°00' E 008°16'1616.0
2017-Feb-15 05:34N 53°54' E 008°41'1313.1
2017-Feb-15 04:34N 53°52' E 009°03'10 9.6
2017-Feb-15 03:33N 53°51' E 009°20'1211.6
2017-Feb-15 02:34N 53°41' E 009°30'1010.2
2017-Feb-15 01:33N 53°34' E 009°42'9 8.6
2017-Feb-15 00:33N 53°33' E 009°57'1 1.1
2017-Feb-14 23:28N 53°32' E 009°59'0 0.0
2017-Feb-14 22:31N 53°32' E 009°59'0 0.0
2017-Feb-14 21:31N 53°32' E 009°59'  

Dump ship's entire track history